createdAt,value
2018-10-19T00:01:23.296Z,96.67
2018-10-19T00:03:50.459Z,95.69
2018-10-19T00:06:17.645Z,94.75
2018-10-19T00:08:44.793Z,97.41
2018-10-19T00:11:11.890Z,96.80
2018-10-19T00:13:39.109Z,97.92
2018-10-19T00:16:06.481Z,96.32
2018-10-19T00:18:33.641Z,94.51
2018-10-19T00:21:00.794Z,94.68
2018-10-19T00:23:28.121Z,95.63
2018-10-19T00:25:55.295Z,95.05
2018-10-19T00:28:22.455Z,95.00
2018-10-19T00:30:49.643Z,95.18
2018-10-19T00:33:16.708Z,96.37
2018-10-19T00:35:43.951Z,95.14
2018-10-19T00:38:11.347Z,93.62
2018-10-19T00:40:38.428Z,94.39
2018-10-19T00:43:05.543Z,95.64
2018-10-19T00:45:38.808Z,93.68
2018-10-19T00:48:10.162Z,95.80
2018-10-19T00:50:37.352Z,95.88
2018-10-19T00:53:05.529Z,95.13
2018-10-19T00:55:32.663Z,95.58
2018-10-19T00:57:59.763Z,95.58
2018-10-19T01:00:26.967Z,95.65
2018-10-19T01:02:54.139Z,95.01
2018-10-19T01:05:21.216Z,95.95
2018-10-19T01:07:48.374Z,97.04
2018-10-19T01:10:20.128Z,97.30
2018-10-19T01:12:47.273Z,100.00
2018-10-19T01:15:14.590Z,99.60
2018-10-19T01:17:41.595Z,100.00
2018-10-19T01:20:08.680Z,99.37
2018-10-19T01:22:35.864Z,100.00
2018-10-19T01:25:03.039Z,99.76
2018-10-19T01:27:30.124Z,99.38
2018-10-19T01:29:57.263Z,98.98
2018-10-19T01:32:24.328Z,100.00
2018-10-19T01:34:51.400Z,100.00
2018-10-19T01:37:18.503Z,100.00
2018-10-19T01:39:45.647Z,99.65
2018-10-19T01:42:12.724Z,99.55
2018-10-19T01:44:40.143Z,99.64
2018-10-19T01:47:07.256Z,100.00
2018-10-19T01:49:34.345Z,99.13
2018-10-19T01:52:01.400Z,100.00
2018-10-19T01:54:28.470Z,100.00
2018-10-19T01:56:55.606Z,100.00
2018-10-19T01:59:22.645Z,97.19
2018-10-19T02:01:49.809Z,96.51
2018-10-19T02:04:16.992Z,95.55
2018-10-19T02:06:44.095Z,95.58
2018-10-19T02:09:11.182Z,95.85
2018-10-19T02:11:38.582Z,97.66
2018-10-19T02:14:05.662Z,97.71
2018-10-19T02:16:32.843Z,96.48
2018-10-19T02:18:59.906Z,94.55
2018-10-19T02:21:27.031Z,97.63
2018-10-19T02:23:54.288Z,97.61
2018-10-19T02:26:21.387Z,96.69
2018-10-19T02:28:48.808Z,95.26
2018-10-19T02:31:16.194Z,95.38
2018-10-19T02:33:43.253Z,95.57
2018-10-19T02:36:10.342Z,95.45
2018-10-19T02:38:37.436Z,95.85
2018-10-19T02:41:05.208Z,93.96
2018-10-19T02:43:32.224Z,93.61
2018-10-19T02:45:59.476Z,93.95
2018-10-19T02:48:26.544Z,93.76
2018-10-19T02:50:53.638Z,94.04
2018-10-19T02:53:20.750Z,93.70
2018-10-19T02:55:47.949Z,91.94
2018-10-19T02:58:15.056Z,94.08
2018-10-19T03:00:42.140Z,93.11
2018-10-19T03:03:09.257Z,94.81
2018-10-19T03:05:36.527Z,94.31
2018-10-19T03:08:03.685Z,94.05
2018-10-19T03:10:30.752Z,94.85
2018-10-19T03:12:58.149Z,95.21
2018-10-19T03:15:25.219Z,96.17
2018-10-19T03:17:52.285Z,95.40
2018-10-19T03:20:19.369Z,95.20
2018-10-19T03:22:46.590Z,93.05
2018-10-19T03:25:13.747Z,94.80
2018-10-19T03:27:41.184Z,94.81
2018-10-19T03:30:08.818Z,94.81
2018-10-19T03:32:35.977Z,94.81
2018-10-19T03:35:03.240Z,97.40
2018-10-19T03:37:30.379Z,97.69
2018-10-19T03:39:57.457Z,96.64
2018-10-19T03:42:24.519Z,95.98
2018-10-19T03:44:51.645Z,94.65
2018-10-19T03:47:18.841Z,94.74
2018-10-19T03:49:45.892Z,93.31
2018-10-19T03:52:12.973Z,94.15
2018-10-19T03:54:40.059Z,95.30
2018-10-19T03:57:07.217Z,96.71
2018-10-19T03:59:34.367Z,97.90
2018-10-19T04:02:01.576Z,99.32
2018-10-19T04:04:28.684Z,100.00
2018-10-19T04:06:55.874Z,100.00
2018-10-19T04:09:22.948Z,100.00
2018-10-19T04:11:50.354Z,100.00
2018-10-19T04:14:17.426Z,100.00
2018-10-19T04:16:44.532Z,100.00
2018-10-19T04:19:12.307Z,100.00
2018-10-19T04:21:39.385Z,100.00
2018-10-19T04:24:06.816Z,100.00
2018-10-19T04:26:33.985Z,100.00
2018-10-19T04:29:01.155Z,100.00
2018-10-19T04:31:28.185Z,100.00
2018-10-19T04:33:55.354Z,100.00
2018-10-19T04:36:22.562Z,100.00
2018-10-19T04:38:49.657Z,100.00
2018-10-19T04:41:16.896Z,100.00
2018-10-19T04:43:44.008Z,100.00
2018-10-19T04:46:11.369Z,100.00
2018-10-19T04:48:38.447Z,100.00
2018-10-19T04:51:05.702Z,100.00
2018-10-19T04:53:32.731Z,100.00
2018-10-19T04:55:59.803Z,100.00
2018-10-19T04:58:26.879Z,100.00
2018-10-19T05:00:53.984Z,100.00
2018-10-19T05:03:21.123Z,100.00
2018-10-19T05:05:48.320Z,100.00
2018-10-19T05:08:15.515Z,100.00
2018-10-19T05:10:42.564Z,100.00
2018-10-19T05:13:09.744Z,100.00
2018-10-19T05:15:36.868Z,100.00
2018-10-19T05:18:04.278Z,100.00
2018-10-19T05:20:31.400Z,100.00
2018-10-19T05:22:58.559Z,100.00
2018-10-19T05:25:25.583Z,100.00
2018-10-19T05:27:52.891Z,100.00
2018-10-19T05:30:19.976Z,100.00
2018-10-19T05:32:47.186Z,100.00
2018-10-19T05:35:14.676Z,100.00
2018-10-19T05:37:41.843Z,100.00
2018-10-19T05:40:09.781Z,100.00
2018-10-19T05:42:37.433Z,100.00
2018-10-19T05:45:06.912Z,100.00
2018-10-19T05:47:33.983Z,100.00
2018-10-19T05:50:01.187Z,100.00
2018-10-19T05:52:28.434Z,100.00
2018-10-19T05:54:55.699Z,100.00
2018-10-19T05:57:23.183Z,100.00
2018-10-19T05:59:50.337Z,100.00
2018-10-19T06:02:17.546Z,100.00
2018-10-19T06:04:44.852Z,100.00
2018-10-19T06:07:11.975Z,100.00
2018-10-19T06:09:39.072Z,100.00
2018-10-19T06:12:06.695Z,100.00
2018-10-19T06:14:33.776Z,100.00
2018-10-19T06:17:00.929Z,100.00
2018-10-19T06:19:28.270Z,100.00
2018-10-19T06:21:55.351Z,100.00
2018-10-19T06:24:22.517Z,100.00
2018-10-19T06:26:49.605Z,100.00
2018-10-19T06:29:16.796Z,100.00
2018-10-19T06:31:44.006Z,100.00
2018-10-19T06:34:11.083Z,100.00
2018-10-19T06:36:38.429Z,100.00
2018-10-19T06:39:08.002Z,100.00
2018-10-19T06:41:35.180Z,100.00
2018-10-19T06:44:02.469Z,100.00
2018-10-19T06:46:29.891Z,100.00
2018-10-19T06:48:57.380Z,100.00
2018-10-19T06:51:24.480Z,100.00
2018-10-19T06:53:51.576Z,100.00
2018-10-19T06:56:18.781Z,100.00
2018-10-19T06:58:45.863Z,100.00
2018-10-19T07:01:13.132Z,100.00
2018-10-19T07:03:40.300Z,100.00
2018-10-19T07:06:07.450Z,100.00
2018-10-19T07:08:34.638Z,100.00
2018-10-19T07:11:01.933Z,100.00
2018-10-19T07:13:29.240Z,100.00
2018-10-19T07:15:56.403Z,100.00
2018-10-19T07:18:23.508Z,100.00
2018-10-19T07:20:50.897Z,100.00
2018-10-19T07:23:17.973Z,100.00
2018-10-19T07:25:46.212Z,100.00
2018-10-19T07:28:13.758Z,100.00
2018-10-19T07:30:41.148Z,100.00
2018-10-19T07:33:08.240Z,100.00
2018-10-19T07:35:35.471Z,100.00
2018-10-19T07:38:02.561Z,100.00
2018-10-19T07:40:30.052Z,100.00
2018-10-19T07:42:57.148Z,100.00
2018-10-19T07:45:25.008Z,100.00
2018-10-19T07:47:52.248Z,100.00
2018-10-19T07:50:19.558Z,100.00
2018-10-19T07:52:46.687Z,100.00
2018-10-19T07:55:13.888Z,100.00
2018-10-19T07:57:41.464Z,100.00
2018-10-19T08:00:09.415Z,100.00
2018-10-19T08:02:36.532Z,100.00
2018-10-19T08:05:03.785Z,100.00
2018-10-19T08:07:31.051Z,100.00
2018-10-19T08:09:58.751Z,100.00
2018-10-19T08:12:25.995Z,100.00
2018-10-19T08:14:53.272Z,100.00
2018-10-19T08:17:20.364Z,100.00
2018-10-19T08:19:47.811Z,100.00
2018-10-19T08:22:15.312Z,100.00
2018-10-19T08:24:42.421Z,100.00
2018-10-19T08:27:09.758Z,100.00
2018-10-19T08:29:36.840Z,100.00
2018-10-19T08:32:04.377Z,100.00
2018-10-19T08:34:31.571Z,100.00
2018-10-19T08:36:58.671Z,100.00
2018-10-19T08:39:25.742Z,100.00
2018-10-19T08:41:52.836Z,100.00
2018-10-19T08:44:20.727Z,100.00
2018-10-19T08:46:47.879Z,100.00
2018-10-19T08:49:15.258Z,100.00
2018-10-19T08:51:42.313Z,100.00
2018-10-19T08:54:09.840Z,100.00
2018-10-19T08:56:37.320Z,100.00
2018-10-19T08:59:04.553Z,100.00
2018-10-19T09:01:31.615Z,100.00
2018-10-19T09:03:59.121Z,100.00
2018-10-19T09:06:26.176Z,100.00
2018-10-19T09:08:53.312Z,100.00
2018-10-19T09:11:20.607Z,100.00
2018-10-19T09:13:47.659Z,100.00
2018-10-19T09:16:14.847Z,100.00
2018-10-19T09:18:42.000Z,100.00
2018-10-19T09:21:09.206Z,100.00
2018-10-19T09:23:36.247Z,100.00
2018-10-19T09:26:03.377Z,100.00
2018-10-19T09:28:30.579Z,99.60
2018-10-19T09:30:57.652Z,99.31
2018-10-19T09:33:24.743Z,100.00
2018-10-19T09:35:52.112Z,97.51
2018-10-19T09:38:19.157Z,96.20
2018-10-19T09:40:46.626Z,95.45
2018-10-19T09:43:13.771Z,95.21
2018-10-19T09:45:40.909Z,94.84
2018-10-19T09:48:08.373Z,95.04
2018-10-19T09:50:38.355Z,93.58
2018-10-19T09:53:05.488Z,90.26
2018-10-19T09:55:32.581Z,88.83
2018-10-19T09:57:59.768Z,87.95
2018-10-19T10:00:32.815Z,90.63
2018-10-19T10:02:59.934Z,87.98
2018-10-19T10:05:27.090Z,87.01
2018-10-19T10:07:54.177Z,85.60
2018-10-19T10:10:21.248Z,83.16
2018-10-19T10:12:48.327Z,80.32
2018-10-19T10:15:15.684Z,81.38
2018-10-19T10:17:42.705Z,80.43
2018-10-19T10:20:10.009Z,78.76
2018-10-19T10:22:37.225Z,75.69
2018-10-19T10:25:05.553Z,78.76
2018-10-19T10:27:40.396Z,75.98
2018-10-19T10:30:08.876Z,76.50
2018-10-19T10:32:35.974Z,73.90
2018-10-19T10:35:03.132Z,74.71
2018-10-19T10:37:30.260Z,74.89
2018-10-19T10:39:57.471Z,70.85
2018-10-19T10:42:24.516Z,68.84
2018-10-19T10:44:51.715Z,70.39
2018-10-19T10:47:18.780Z,69.32
2018-10-19T10:49:45.939Z,71.19
2018-10-19T10:52:13.168Z,71.22
2018-10-19T10:54:40.111Z,69.84
2018-10-19T10:57:07.516Z,67.79
2018-10-19T10:59:34.591Z,68.80
2018-10-19T11:02:01.765Z,68.23
2018-10-19T11:04:29.152Z,69.03
2018-10-19T11:06:56.479Z,68.70
2018-10-19T11:09:23.620Z,81.40
2018-10-19T11:11:50.778Z,71.22
2018-10-19T11:14:17.866Z,67.69
2018-10-19T11:16:45.051Z,66.82
2018-10-19T11:19:12.407Z,70.40
2018-10-19T11:21:39.479Z,65.30
2018-10-19T11:24:06.556Z,66.23
2018-10-19T11:26:33.754Z,66.69
2018-10-19T11:29:00.864Z,65.22
2018-10-19T11:31:27.944Z,65.67
2018-10-19T11:33:55.150Z,64.91
2018-10-19T11:36:22.251Z,63.51
2018-10-19T11:38:49.419Z,64.02
2018-10-19T11:41:16.573Z,63.26
2018-10-19T11:43:43.916Z,64.50
2018-10-19T11:46:11.011Z,65.31
2018-10-19T11:48:38.139Z,61.76
2018-10-19T11:51:05.255Z,64.79
2018-10-19T11:53:32.428Z,62.81
2018-10-19T11:55:59.541Z,63.90
2018-10-19T11:58:26.693Z,62.64
2018-10-19T12:00:53.805Z,61.93
2018-10-19T12:03:20.954Z,62.17
2018-10-19T12:05:48.028Z,67.55
2018-10-19T12:08:15.118Z,66.42
2018-10-19T12:10:42.666Z,65.64
2018-10-19T12:13:09.775Z,64.55
2018-10-19T12:15:36.879Z,64.55
2018-10-19T12:18:04.473Z,61.42
2018-10-19T12:20:31.665Z,62.56
2018-10-19T12:22:58.835Z,59.90
2018-10-19T12:25:26.127Z,59.09
2018-10-19T12:30:34.695Z,55.44
2018-10-19T12:33:01.838Z,56.21
2018-10-19T12:35:28.913Z,56.42
2018-10-19T12:37:56.023Z,52.23
2018-10-19T12:40:23.120Z,53.44
2018-10-19T12:42:50.198Z,50.79
2018-10-19T12:46:31.014Z,50.04
2018-10-19T12:48:58.171Z,51.60
2018-10-19T12:51:25.268Z,53.80
2018-10-19T12:53:52.426Z,51.18
2018-10-19T12:56:20.081Z,51.50
2018-10-19T12:58:48.255Z,51.04
2018-10-19T13:01:15.416Z,49.05
2018-10-19T13:03:42.493Z,48.01
2018-10-19T13:06:10.325Z,47.12
2018-10-19T13:08:37.510Z,47.46
2018-10-19T13:11:05.023Z,46.17
2018-10-19T13:13:32.141Z,46.80
2018-10-19T13:15:59.785Z,48.06
2018-10-19T13:18:27.215Z,46.84
2018-10-19T13:20:54.615Z,48.27
2018-10-19T13:23:21.668Z,50.00
2018-10-19T13:25:48.743Z,49.08
2018-10-19T13:28:16.251Z,48.81
2018-10-19T13:30:43.553Z,49.24
2018-10-19T13:33:11.212Z,47.48
2018-10-19T13:35:38.223Z,46.26
2018-10-19T13:38:05.309Z,47.53
2018-10-19T13:40:32.520Z,46.96
2018-10-19T13:42:59.579Z,47.71
2018-10-19T13:45:26.737Z,47.68
2018-10-19T13:47:53.932Z,47.75
2018-10-19T13:50:21.024Z,49.02
2018-10-19T13:52:48.102Z,49.20
2018-10-19T13:55:15.217Z,49.20
2018-10-19T13:57:42.286Z,50.35
2018-10-19T14:00:09.408Z,52.54
2018-10-19T14:02:36.723Z,52.72
2018-10-19T14:05:04.141Z,51.64
2018-10-19T14:07:31.204Z,52.59
2018-10-19T14:09:58.304Z,53.10
2018-10-19T14:12:25.376Z,50.92
2018-10-19T14:14:52.706Z,53.25
2018-10-19T14:17:19.801Z,51.61
2018-10-19T14:19:46.876Z,53.20
2018-10-19T14:22:14.140Z,52.68
2018-10-19T14:24:41.217Z,52.75
2018-10-19T14:27:08.340Z,52.17
2018-10-19T14:29:35.405Z,53.65
2018-10-19T14:32:02.479Z,52.82
2018-10-19T14:34:29.627Z,55.16
2018-10-19T14:36:56.692Z,52.99
2018-10-19T14:39:23.768Z,54.07
2018-10-19T14:41:50.872Z,54.15
2018-10-19T14:44:17.920Z,54.23
2018-10-19T14:46:45.048Z,54.23
2018-10-19T14:49:12.115Z,55.81
2018-10-19T14:51:39.191Z,55.19
2018-10-19T14:54:06.783Z,54.85
2018-10-19T14:56:33.860Z,55.19
2018-10-19T14:59:00.968Z,55.05
2018-10-19T15:01:28.085Z,59.14
2018-10-19T15:03:55.162Z,58.69
2018-10-19T15:06:22.260Z,61.51
2018-10-19T15:08:49.369Z,55.45
2018-10-19T15:11:16.737Z,57.89
2018-10-19T15:13:43.536Z,60.17
2018-10-19T15:16:10.624Z,58.69
2018-10-19T15:18:37.738Z,60.00
2018-10-19T15:21:04.859Z,59.39
2018-10-19T15:23:32.265Z,60.57
2018-10-19T15:25:59.327Z,58.70
2018-10-19T15:28:26.399Z,57.48
2018-10-19T15:30:53.559Z,60.20
2018-10-19T15:33:20.637Z,56.89
2018-10-19T15:35:47.703Z,59.87
2018-10-19T15:38:14.804Z,57.90
2018-10-19T15:40:41.871Z,60.01
2018-10-19T15:43:08.960Z,59.69
2018-10-19T15:45:36.044Z,59.29
2018-10-19T15:48:03.441Z,59.61
2018-10-19T15:50:30.534Z,59.73
2018-10-19T15:52:57.803Z,60.76
2018-10-19T15:55:25.005Z,61.38
2018-10-19T15:57:52.131Z,59.60
2018-10-19T16:00:19.408Z,61.03
2018-10-19T16:02:46.585Z,60.30
2018-10-19T16:05:13.651Z,61.36
2018-10-19T16:07:41.074Z,61.64
2018-10-19T16:10:08.223Z,61.67
2018-10-19T16:12:35.493Z,61.21
2018-10-19T16:15:02.645Z,62.24
2018-10-19T16:17:29.694Z,62.67
2018-10-19T16:20:05.318Z,61.95
2018-10-19T16:22:32.424Z,63.21
2018-10-19T16:24:59.570Z,63.42
2018-10-19T16:27:26.817Z,63.92
2018-10-19T16:29:54.205Z,63.71
2018-10-19T16:32:21.564Z,62.97
2018-10-19T16:34:48.690Z,63.65
2018-10-19T16:37:15.787Z,64.02
2018-10-19T16:39:42.884Z,63.80
2018-10-19T16:42:10.525Z,64.64
2018-10-19T16:44:37.601Z,64.28
2018-10-19T16:47:05.687Z,64.68
2018-10-19T16:49:32.776Z,64.17
2018-10-19T16:51:59.986Z,64.77
2018-10-19T16:54:27.091Z,65.22
2018-10-19T16:56:54.380Z,65.07
2018-10-19T16:59:21.463Z,65.46
2018-10-19T17:01:48.524Z,65.45
2018-10-19T17:04:15.800Z,66.33
2018-10-19T17:06:43.235Z,66.85
2018-10-19T17:09:12.171Z,66.97
2018-10-19T17:11:39.577Z,67.42
2018-10-19T17:14:06.749Z,67.55
2018-10-19T17:16:33.815Z,69.09
2018-10-19T17:19:00.892Z,69.36
2018-10-19T17:21:28.561Z,69.35
2018-10-19T17:23:55.831Z,69.70
2018-10-19T17:26:22.823Z,68.48
2018-10-19T17:28:50.041Z,69.26
2018-10-19T17:31:17.258Z,68.68
2018-10-19T17:33:44.535Z,68.46
2018-10-19T17:36:11.622Z,68.37
2018-10-19T17:38:38.851Z,69.62
2018-10-19T17:41:06.084Z,70.39
2018-10-19T17:43:33.640Z,71.50
2018-10-19T17:46:00.740Z,71.57
2018-10-19T17:48:27.808Z,71.71
2018-10-19T17:50:54.913Z,72.33
2018-10-19T17:53:22.066Z,73.39
2018-10-19T17:55:49.216Z,74.08
2018-10-19T17:58:16.432Z,74.09
2018-10-19T18:00:43.879Z,73.76
2018-10-19T18:03:11.621Z,74.56
2018-10-19T18:05:38.749Z,73.30
2018-10-19T18:08:06.119Z,73.57
2018-10-19T18:10:33.650Z,74.15
2018-10-19T18:13:00.935Z,73.68
2018-10-19T18:15:28.126Z,73.29
2018-10-19T18:17:55.656Z,74.90
2018-10-19T18:20:23.034Z,74.49
2018-10-19T18:22:50.219Z,74.76
2018-10-19T18:25:17.524Z,75.74
2018-10-19T18:27:44.744Z,78.60
2018-10-19T18:30:11.860Z,81.22
2018-10-19T18:32:39.376Z,79.16
2018-10-19T18:35:08.386Z,77.95
2018-10-19T18:37:35.648Z,77.39
2018-10-19T18:40:02.725Z,78.50
2018-10-19T18:42:29.931Z,78.11
2018-10-19T18:44:57.222Z,79.05
2018-10-19T18:47:24.698Z,79.03
2018-10-19T18:49:52.225Z,78.50
2018-10-19T18:52:19.460Z,77.58
2018-10-19T18:54:46.548Z,78.93
2018-10-19T18:57:13.622Z,78.66
2018-10-19T18:59:40.779Z,79.70
2018-10-19T19:02:07.999Z,79.58
2018-10-19T19:04:35.046Z,78.96
2018-10-19T19:07:02.124Z,78.62
2018-10-19T19:09:30.275Z,80.27
2018-10-19T19:11:57.318Z,79.83
2018-10-19T19:14:24.410Z,80.81
2018-10-19T19:16:51.580Z,81.65
2018-10-19T19:19:18.652Z,80.52
2018-10-19T19:21:46.316Z,80.58
2018-10-19T19:24:19.097Z,81.33
2018-10-19T19:26:46.533Z,81.71
2018-10-19T19:29:13.716Z,82.46
2018-10-19T19:31:41.173Z,81.80
2018-10-19T19:34:14.066Z,81.60
2018-10-19T19:36:41.498Z,82.48
2018-10-19T19:39:09.151Z,82.44
2018-10-19T19:41:41.939Z,83.75
2018-10-19T19:44:09.170Z,83.82
2018-10-19T19:46:36.268Z,84.27
2018-10-19T19:49:09.892Z,83.43
2018-10-19T19:51:36.911Z,82.51
2018-10-19T19:54:04.420Z,83.93
2018-10-19T19:56:31.617Z,83.67
2018-10-19T19:58:58.824Z,84.45
2018-10-19T20:01:25.872Z,84.69
2018-10-19T20:03:52.994Z,84.59
2018-10-19T20:06:20.091Z,84.81
2018-10-19T20:08:47.212Z,85.33
2018-10-19T20:11:14.345Z,85.95
2018-10-19T20:13:41.380Z,85.70
2018-10-19T20:16:08.739Z,85.62
2018-10-19T20:18:35.828Z,85.87
2018-10-19T20:21:03.008Z,87.29
2018-10-19T20:23:30.354Z,87.53
2018-10-19T20:25:57.753Z,89.00
2018-10-19T20:28:25.121Z,89.48
2018-10-19T20:30:52.516Z,89.96
2018-10-19T20:33:19.579Z,87.76
2018-10-19T20:35:46.676Z,88.04
2018-10-19T20:38:14.285Z,88.05
2018-10-19T20:40:41.743Z,87.13
2018-10-19T20:43:08.768Z,87.83
2018-10-19T20:45:36.223Z,89.14
2018-10-19T20:48:04.140Z,87.83
2018-10-19T20:50:31.322Z,87.80
2018-10-19T20:52:58.939Z,87.81
2018-10-19T20:55:26.638Z,87.92
2018-10-19T20:57:54.445Z,87.88
2018-10-19T21:00:21.612Z,88.86
2018-10-19T21:02:55.721Z,89.88
2018-10-19T21:05:23.565Z,90.38
2018-10-19T21:07:51.043Z,89.38
2018-10-19T21:10:18.771Z,87.89
2018-10-19T21:12:46.119Z,86.73
2018-10-19T21:15:13.862Z,87.45
2018-10-19T21:17:42.349Z,88.11
2018-10-19T21:20:10.782Z,87.28
2018-10-19T21:22:38.046Z,88.93
2018-10-19T21:25:06.540Z,88.13
2018-10-19T21:27:34.068Z,87.55
2018-10-19T21:30:01.523Z,88.75
2018-10-19T21:32:29.218Z,89.70
2018-10-19T21:34:56.843Z,89.96
2018-10-19T21:37:23.851Z,89.09
2018-10-19T21:39:51.464Z,89.56
2018-10-19T21:42:18.556Z,90.85
2018-10-19T21:44:45.921Z,90.88
2018-10-19T21:47:13.166Z,88.74
2018-10-19T21:49:40.658Z,89.29
2018-10-19T21:52:07.977Z,92.00
2018-10-19T21:54:35.108Z,90.70
2018-10-19T21:57:02.220Z,89.18
2018-10-19T21:59:29.833Z,90.82
2018-10-19T22:01:57.386Z,90.36
2018-10-19T22:04:24.933Z,90.00
2018-10-19T22:06:52.154Z,89.47
2018-10-19T22:09:19.891Z,89.58
2018-10-19T22:11:47.236Z,88.84
2018-10-19T22:14:14.604Z,89.85
2018-10-19T22:16:42.057Z,89.67
2018-10-19T22:19:10.064Z,89.46
2018-10-19T22:21:37.457Z,92.11
2018-10-19T22:24:05.231Z,93.96
2018-10-19T22:26:32.288Z,93.71
2018-10-19T22:28:59.497Z,91.49
2018-10-19T22:31:26.571Z,92.65
2018-10-19T22:33:53.741Z,93.25
2018-10-19T22:36:20.807Z,92.66
2018-10-19T22:38:48.163Z,92.63
2018-10-19T22:41:15.248Z,91.77
2018-10-19T22:43:42.291Z,89.75
2018-10-19T22:46:09.377Z,91.92
2018-10-19T22:48:37.019Z,91.00
2018-10-19T22:51:04.099Z,91.29
2018-10-19T22:53:31.333Z,93.53
2018-10-19T22:55:58.419Z,91.85
2018-10-19T22:58:25.818Z,91.29
2018-10-19T23:00:52.894Z,89.28
2018-10-19T23:03:20.307Z,91.51
2018-10-19T23:05:47.499Z,88.86
2018-10-19T23:08:14.704Z,88.79
2018-10-19T23:10:41.947Z,88.56
2018-10-19T23:13:09.068Z,90.14
2018-10-19T23:15:36.405Z,90.62
2018-10-19T23:18:03.816Z,93.47
2018-10-19T23:20:31.044Z,93.52
2018-10-19T23:22:58.428Z,92.93
2018-10-19T23:25:25.556Z,89.89
2018-10-19T23:27:52.713Z,91.94
2018-10-19T23:30:19.780Z,93.05
2018-10-19T23:32:46.915Z,94.47
2018-10-19T23:35:15.032Z,96.56
2018-10-19T23:37:42.379Z,96.45
2018-10-19T23:40:09.391Z,93.34
2018-10-19T23:42:36.574Z,94.63
2018-10-19T23:45:04.979Z,95.08
2018-10-19T23:47:32.191Z,95.74
2018-10-19T23:49:59.340Z,95.96
2018-10-19T23:52:26.396Z,95.97
2018-10-19T23:54:53.842Z,94.37
2018-10-19T23:57:20.985Z,92.84
2018-10-19T23:59:48.262Z,93.88
